Time;durP1;ratioP1;P1;durP2;ratioP2;P2;SDS_P1;SDS_P2;PMS_P1;PMS_P2;Temp;Humidity;BMP_temperature;BMP_pressure;BME280_temperature;BME280_humidity;BME280_pressure;Samples;Min_cycle;Max_cycle;Signal;HPM_P1;HPM_P2
2021/05/16 00:00:43;;;;;;;16.57;10.47;;;;;;;;;;5134065;28;20435;-60
2021/05/16 00:03:20;;;;;;;9.33;4.30;;;;;;;;;;5138811;28;20461;-55
2021/05/16 00:05:47;;;;;;;6.47;2.23;;;;;;;;;;5138347;28;20482;-59
2021/05/16 00:08:14;;;;;;;5.60;2.10;;;;;;;;;;5138738;28;20454;-52
2021/05/16 00:10:52;;;;;;;16.77;7.43;;;;;;;;;;5138139;28;20442;-52
2021/05/16 00:13:19;;;;;;;11.50;2.90;;;;;;;;;;5138762;28;20469;-55
2021/05/16 00:15:47;;;;;;;10.13;4.60;;;;;;;;;;5138499;28;20457;-53
2021/05/16 00:18:15;;;;;;;7.73;3.40;;;;;;;;;;5138468;28;20461;-56
2021/05/16 00:20:42;;;;;;;8.27;3.60;;;;;;;;;;5137846;28;20439;-52
2021/05/16 00:23:09;;;;;;;11.57;3.80;;;;;;;;;;5117948;28;20454;-57
2021/05/16 00:25:44;;;;;;;9.57;3.47;;;;;;;;;;5118027;28;20513;-54
2021/05/16 00:28:11;;;;;;;11.63;5.80;;;;;;;;;;5117871;28;20447;-45
2021/05/16 00:30:38;;;;;;;19.60;7.33;;;;;;;;;;5118386;28;20518;-54
2021/05/16 00:33:22;;;;;;;13.23;4.77;;;;;;;;;;5117650;28;20429;-52
2021/05/16 00:35:49;;;;;;;8.80;4.90;;;;;;;;;;5136589;28;20442;-54
2021/05/16 00:38:20;;;;;;;11.07;5.20;;;;;;;;;;5138376;28;20446;-56
2021/05/16 00:40:52;;;;;;;12.70;4.30;;;;;;;;;;5137766;28;20458;-55
2021/05/16 00:43:19;;;;;;;18.70;11.93;;;;;;;;;;5137800;28;20439;-59
2021/05/16 00:45:47;;;;;;;9.67;4.07;;;;;;;;;;5138354;28;20589;-54
2021/05/16 00:48:34;;;;;;;14.60;2.90;;;;;;;;;;5138252;28;20486;-54
2021/05/16 00:51:01;;;;;;;10.90;3.70;;;;;;;;;;5138168;28;20480;-50
2021/05/16 00:53:28;;;;;;;11.17;3.43;;;;;;;;;;5137731;28;20764;-55
2021/05/16 00:56:06;;;;;;;18.07;7.47;;;;;;;;;;5138221;28;20536;-56
2021/05/16 00:58:33;;;;;;;19.03;9.30;;;;;;;;;;5137771;28;20450;-59
2021/05/16 01:01:01;;;;;;;21.80;10.27;;;;;;;;;;5138113;28;20442;-58
2021/05/16 01:03:33;;;;;;;10.70;4.60;;;;;;;;;;5137949;28;20942;-58
2021/05/16 01:06:00;;;;;;;18.33;10.00;;;;;;;;;;5137939;28;20474;-57
2021/05/16 01:08:28;;;;;;;10.20;4.23;;;;;;;;;;5137719;28;20491;-56
2021/05/16 01:11:06;;;;;;;11.50;4.33;;;;;;;;;;5138073;28;20454;-57
2021/05/16 01:13:35;;;;;;;12.57;3.63;;;;;;;;;;5133849;28;20439;-54
2021/05/16 01:16:02;;;;;;;8.80;4.70;;;;;;;;;;5117741;28;20458;-56
2021/05/16 01:18:52;;;;;;;8.90;2.60;;;;;;;;;;5117942;28;20466;-59
2021/05/16 01:21:23;;;;;;;12.80;5.50;;;;;;;;;;5137384;28;20462;-57
2021/05/16 01:23:50;;;;;;;16.13;4.57;;;;;;;;;;5137590;28;20462;-53
2021/05/16 01:26:27;;;;;;;10.23;3.83;;;;;;;;;;5137529;28;20490;-57
2021/05/16 01:28:54;;;;;;;13.80;5.17;;;;;;;;;;5132309;28;20504;-55
2021/05/16 01:31:21;;;;;;;11.70;5.20;;;;;;;;;;5116544;28;20463;-55
2021/05/16 01:33:47;;;;;;;13.90;5.17;;;;;;;;;;5116916;28;20764;-52
2021/05/16 01:36:18;;;;;;;12.43;7.57;;;;;;;;;;5117124;28;20415;-54
2021/05/16 01:38:47;;;;;;;11.10;6.00;;;;;;;;;;5116912;28;20443;-55
2021/05/16 01:41:14;;;;;;;8.23;5.33;;;;;;;;;;5116490;28;20483;-54
2021/05/16 01:43:46;;;;;;;15.43;5.00;;;;;;;;;;5135011;28;20442;-57
2021/05/16 01:46:27;;;;;;;10.50;4.70;;;;;;;;;;5116059;28;20486;-53
2021/05/16 01:48:57;;;;;;;8.20;3.13;;;;;;;;;;5130317;27;20485;-51
2021/05/16 01:51:23;;;;;;;6.20;2.80;;;;;;;;;;5136557;28;20449;-54
2021/05/16 01:53:51;;;;;;;12.67;5.83;;;;;;;;;;5136737;28;20565;-53
2021/05/16 01:56:22;;;;;;;10.30;3.73;;;;;;;;;;5136196;28;20520;-55
2021/05/16 01:58:50;;;;;;;13.10;4.27;;;;;;;;;;5119782;28;20457;-58
2021/05/16 02:01:17;;;;;;;13.47;4.40;;;;;;;;;;5137225;28;20449;-53
2021/05/16 02:03:44;;;;;;;15.07;6.80;;;;;;;;;;5136617;28;20454;-52
2021/05/16 02:06:11;;;;;;;11.27;6.03;;;;;;;;;;5123313;28;20475;-46
2021/05/16 02:08:39;;;;;;;9.17;2.87;;;;;;;;;;5116119;28;20458;-53
2021/05/16 02:11:07;;;;;;;10.70;5.30;;;;;;;;;;5116001;28;20444;-56
2021/05/16 02:13:47;;;;;;;14.75;3.55;;;;;;;;;;5116370;28;20778;-56
2021/05/16 02:16:14;;;;;;;12.13;4.13;;;;;;;;;;5118150;28;20208;-52
2021/05/16 02:18:42;;;;;;;9.93;4.43;;;;;;;;;;5136335;28;20463;-52
2021/05/16 02:21:10;;;;;;;10.20;4.03;;;;;;;;;;5120234;28;20450;-57
2021/05/16 02:23:38;;;;;;;14.83;4.20;;;;;;;;;;5115636;28;20466;-52
2021/05/16 02:26:17;;;;;;;10.27;5.00;;;;;;;;;;5119934;28;20483;-52
2021/05/16 02:28:44;;;;;;;11.27;3.20;;;;;;;;;;5116556;28;20450;-56
2021/05/16 02:31:12;;;;;;;9.13;4.13;;;;;;;;;;5116752;28;20439;-52
2021/05/16 02:33:40;;;;;;;10.33;3.20;;;;;;;;;;5125363;28;20473;-51
2021/05/16 02:36:07;;;;;;;12.90;3.90;;;;;;;;;;5136534;28;20445;-58
2021/05/16 02:38:34;;;;;;;12.53;3.80;;;;;;;;;;5136429;28;20462;-57
2021/05/16 02:41:19;;;;;;;13.00;3.10;;;;;;;;;;5122236;28;20443;-51
2021/05/16 02:43:45;;;;;;;9.53;2.43;;;;;;;;;;5122923;28;20466;-53
2021/05/16 02:46:12;;;;;;;13.23;4.10;;;;;;;;;;5136227;28;20506;-56
2021/05/16 02:48:46;;;;;;;11.47;2.90;;;;;;;;;;5136581;28;20488;-56
2021/05/16 02:51:13;;;;;;;8.30;2.40;;;;;;;;;;5130465;28;20441;-56
2021/05/16 02:53:40;;;;;;;11.03;3.00;;;;;;;;;;5136028;27;20445;-55
2021/05/16 02:56:11;;;;;;;8.80;2.70;;;;;;;;;;5136534;28;20456;-55
2021/05/16 02:58:39;;;;;;;9.73;3.33;;;;;;;;;;5136284;28;20456;-49
2021/05/16 03:01:05;;;;;;;10.97;3.33;;;;;;;;;;5135818;28;20458;-59
2021/05/16 03:03:33;;;;;;;14.43;3.80;;;;;;;;;;5136658;28;20446;-57
2021/05/16 03:05:59;;;;;;;10.33;2.20;;;;;;;;;;5131600;28;20480;-60
2021/05/16 03:08:26;;;;;;;11.70;2.73;;;;;;;;;;5140299;28;20441;-55
2021/05/16 03:11:09;;;;;;;6.73;2.60;;;;;;;;;;5140385;28;20422;-55
2021/05/16 03:13:35;;;;;;;11.23;3.17;;;;;;;;;;5124541;28;20450;-57
2021/05/16 03:16:03;;;;;;;10.43;2.67;;;;;;;;;;5119250;28;20435;-51
2021/05/16 03:18:43;;;;;;;5.53;2.03;;;;;;;;;;5119393;28;20447;-58
2021/05/16 03:21:10;;;;;;;5.93;2.37;;;;;;;;;;5119730;28;20455;-53
2021/05/16 03:23:37;;;;;;;5.87;2.50;;;;;;;;;;5120326;28;20451;-55
2021/05/16 03:26:29;;;;;;;13.03;2.50;;;;;;;;;;5138594;28;20497;-50
2021/05/16 03:28:56;;;;;;;11.83;2.90;;;;;;;;;;5139150;28;20572;-55
2021/05/16 03:31:24;;;;;;;10.83;2.40;;;;;;;;;;5127712;28;20451;-58
2021/05/16 03:34:01;;;;;;;11.37;2.40;;;;;;;;;;5118788;28;20508;-58
2021/05/16 03:36:29;;;;;;;10.80;2.47;;;;;;;;;;5124456;28;20450;-57
2021/05/16 03:38:56;;;;;;;9.03;1.90;;;;;;;;;;5124573;28;20439;-53
2021/05/16 03:41:22;;;;;;;13.97;2.80;;;;;;;;;;5127405;28;20536;-57
2021/05/16 03:43:50;;;;;;;11.23;2.43;;;;;;;;;;5139093;28;20482;-58
2021/05/16 03:46:17;;;;;;;6.03;2.70;;;;;;;;;;5139147;28;20486;-53
2021/05/16 03:48:45;;;;;;;8.15;3.38;;;;;;;;;;5139190;28;20657;-56
2021/05/16 03:51:12;;;;;;;6.67;2.73;;;;;;;;;;5139221;27;20224;-59
2021/05/16 03:54:01;;;;;;;6.23;2.20;;;;;;;;;;5138872;28;20446;-56
2021/05/16 03:56:28;;;;;;;10.80;2.30;;;;;;;;;;5139365;28;20488;-55
2021/05/16 03:58:54;;;;;;;8.63;2.83;;;;;;;;;;5138510;28;20628;-51
2021/05/16 04:01:31;;;;;;;9.57;3.87;;;;;;;;;;5131764;28;20467;-47
2021/05/16 04:04:00;;;;;;;6.72;2.30;;;;;;;;;;5119459;28;20446;-55
2021/05/16 04:06:27;;;;;;;8.70;4.70;;;;;;;;;;5118456;28;20248;-56
2021/05/16 04:09:00;;;;;;;9.70;2.70;;;;;;;;;;5118587;28;20458;-59
2021/05/16 04:11:27;;;;;;;7.47;2.57;;;;;;;;;;5118356;28;20443;-54
2021/05/16 04:13:54;;;;;;;7.27;2.30;;;;;;;;;;5118275;28;20447;-59
2021/05/16 04:16:43;;;;;;;4.30;2.20;;;;;;;;;;5122545;28;20523;-56
2021/05/16 04:19:11;;;;;;;7.63;2.30;;;;;;;;;;5137178;28;20484;-55
2021/05/16 04:21:38;;;;;;;7.50;1.97;;;;;;;;;;5138444;28;20451;-53
2021/05/16 04:24:06;;;;;;;6.70;2.40;;;;;;;;;;5138375;28;20454;-52
2021/05/16 04:26:34;;;;;;;14.53;2.43;;;;;;;;;;5138178;28;20478;-48
2021/05/16 04:29:01;;;;;;;6.13;2.60;;;;;;;;;;5138200;28;20431;-55
2021/05/16 04:31:37;;;;;;;10.63;2.60;;;;;;;;;;5137249;28;20478;-56
2021/05/16 04:34:04;;;;;;;10.55;3.17;;;;;;;;;;5118028;28;20451;-57
2021/05/16 04:36:32;;;;;;;8.80;2.13;;;;;;;;;;5099321;28;20249;-58
2021/05/16 04:39:17;;;;;;;5.47;2.10;;;;;;;;;;5116706;28;20446;-55
2021/05/16 04:41:44;;;;;;;7.43;2.60;;;;;;;;;;5129667;28;20478;-57
2021/05/16 04:44:11;;;;;;;6.40;2.47;;;;;;;;;;5137835;28;20885;-59
2021/05/16 04:46:40;;;;;;;8.30;2.40;;;;;;;;;;5137529;28;20537;-57
2021/05/16 04:49:07;;;;;;;7.27;2.10;;;;;;;;;;5137216;28;20472;-51
2021/05/16 04:51:36;;;;;;;3.30;1.67;;;;;;;;;;5137079;28;20490;-56
2021/05/16 04:54:14;;;;;;;5.73;2.17;;;;;;;;;;5137182;28;20450;-53
2021/05/16 04:56:41;;;;;;;5.63;2.67;;;;;;;;;;5137659;28;20450;-54
2021/05/16 04:59:09;;;;;;;4.33;1.77;;;;;;;;;;5137037;28;20457;-54
2021/05/16 05:01:56;;;;;;;5.80;2.07;;;;;;;;;;5130473;27;20490;-54
2021/05/16 05:04:23;;;;;;;4.27;1.90;;;;;;;;;;5136060;28;20480;-56
2021/05/16 05:06:51;;;;;;;8.03;2.70;;;;;;;;;;5136567;28;20486;-58
2021/05/16 05:09:30;;;;;;;6.10;2.30;;;;;;;;;;5136590;28;20454;-55
2021/05/16 05:11:57;;;;;;;12.20;2.40;;;;;;;;;;5124745;28;20508;-56
2021/05/16 05:14:24;;;;;;;7.50;2.13;;;;;;;;;;5116928;28;20491;-51
2021/05/16 05:17:01;;;;;;;18.60;3.80;;;;;;;;;;5116006;28;20439;-59
2021/05/16 05:19:28;;;;;;;7.77;2.73;;;;;;;;;;5115527;28;20506;-58
2021/05/16 05:21:55;;;;;;;5.30;2.10;;;;;;;;;;5131066;28;20442;-56
2021/05/16 05:24:24;;;;;;;4.73;2.40;;;;;;;;;;5136256;28;20450;-57
2021/05/16 05:26:51;;;;;;;5.27;1.57;;;;;;;;;;5127082;28;20481;-54
2021/05/16 05:29:18;;;;;;;4.53;1.97;;;;;;;;;;5116000;28;20516;-51
2021/05/16 05:31:55;;;;;;;7.90;3.50;;;;;;;;;;5115729;28;20459;-59
2021/05/16 05:34:24;;;;;;;8.00;2.20;;;;;;;;;;5133575;28;20454;-54
2021/05/16 05:36:51;;;;;;;7.17;2.17;;;;;;;;;;5134596;28;20458;-58
2021/05/16 05:39:21;;;;;;;9.70;2.80;;;;;;;;;;5136550;28;20455;-59
2021/05/16 05:41:47;;;;;;;7.73;2.13;;;;;;;;;;5136420;28;20613;-51
2021/05/16 05:44:14;;;;;;;8.30;2.30;;;;;;;;;;5136769;28;20458;-58
2021/05/16 05:46:43;;;;;;;10.47;2.63;;;;;;;;;;5129122;28;20479;-55
2021/05/16 05:49:10;;;;;;;6.30;2.07;;;;;;;;;;5136222;28;20434;-58
2021/05/16 05:51:37;;;;;;;7.30;2.03;;;;;;;;;;5134984;28;20469;-58
2021/05/16 05:54:09;;;;;;;8.73;3.37;;;;;;;;;;5136245;28;20450;-54
2021/05/16 05:56:37;;;;;;;8.90;2.67;;;;;;;;;;5133114;28;20459;-54
2021/05/16 05:59:04;;;;;;;9.13;3.07;;;;;;;;;;5116129;28;20668;-60
2021/05/16 06:01:57;;;;;;;5.27;1.87;;;;;;;;;;5126650;28;20474;-56
2021/05/16 06:04:24;;;;;;;9.20;2.70;;;;;;;;;;5116397;28;20641;-59
2021/05/16 06:06:51;;;;;;;6.17;2.20;;;;;;;;;;5120104;28;20482;-58
2021/05/16 06:09:52;;;;;;;7.83;2.43;;;;;;;;;;5136334;28;20471;-53
2021/05/16 06:12:25;;;;;;;7.90;2.30;;;;;;;;;;5136810;28;20488;-57
2021/05/16 06:14:53;;;;;;;3.40;1.60;;;;;;;;;;5126966;28;20435;-56
2021/05/16 06:17:39;;;;;;;5.13;1.70;;;;;;;;;;5127194;28;20463;-49
2021/05/16 06:20:07;;;;;;;9.20;3.10;;;;;;;;;;5130677;28;20470;-57
2021/05/16 06:22:34;;;;;;;10.87;3.23;;;;;;;;;;5130685;28;20480;-55
2021/05/16 06:25:01;;;;;;;7.50;3.23;;;;;;;;;;5136307;28;20525;-51
2021/05/16 06:27:29;;;;;;;9.33;3.60;;;;;;;;;;5130523;28;20478;-50
2021/05/16 06:29:56;;;;;;;6.27;2.37;;;;;;;;;;5136302;27;20450;-51
2021/05/16 06:32:36;;;;;;;11.03;2.80;;;;;;;;;;5136378;28;20454;-56
2021/05/16 06:35:03;;;;;;;8.60;2.50;;;;;;;;;;5136816;28;20461;-52
2021/05/16 06:37:30;;;;;;;11.67;3.97;;;;;;;;;;5125178;28;20543;-59
2021/05/16 06:40:31;;;;;;;7.77;2.10;;;;;;;;;;5130564;28;20888;-57
2021/05/16 06:43:01;;;;;;;7.23;2.90;;;;;;;;;;5137695;28;20571;-56
2021/05/16 06:45:28;;;;;;;6.63;2.30;;;;;;;;;;5140330;28;20442;-58
2021/05/16 06:48:00;;;;;;;7.73;3.97;;;;;;;;;;5140602;28;20446;-56
2021/05/16 06:50:27;;;;;;;7.03;3.20;;;;;;;;;;5139650;28;20442;-55
2021/05/16 06:52:54;;;;;;;6.03;1.87;;;;;;;;;;5139992;28;20423;-57
2021/05/16 06:55:26;;;;;;;6.80;2.60;;;;;;;;;;5140101;28;20495;-52
2021/05/16 06:57:53;;;;;;;5.43;2.00;;;;;;;;;;5140610;28;20454;-57
2021/05/16 07:00:21;;;;;;;11.30;2.10;;;;;;;;;;5140079;27;20454;-54
2021/05/16 07:02:48;;;;;;;7.17;3.50;;;;;;;;;;5131193;28;20481;-56
2021/05/16 07:05:15;;;;;;;6.33;2.60;;;;;;;;;;5139491;28;20453;-56
2021/05/16 07:07:48;;;;;;;9.00;2.30;;;;;;;;;;5139804;28;20461;-57
2021/05/16 07:10:15;;;;;;;5.90;2.50;;;;;;;;;;5140021;28;20447;-55
2021/05/16 07:12:42;;;;;;;11.70;2.43;;;;;;;;;;5139962;28;20434;-58
2021/05/16 07:15:31;;;;;;;5.83;2.50;;;;;;;;;;5139544;28;20462;-53
2021/05/16 07:17:59;;;;;;;4.00;1.90;;;;;;;;;;5137938;28;21063;-57
2021/05/16 07:20:25;;;;;;;5.77;2.60;;;;;;;;;;5139696;28;20466;-57
2021/05/16 07:22:57;;;;;;;4.60;1.80;;;;;;;;;;5139597;28;20453;-56
2021/05/16 07:25:24;;;;;;;4.60;1.67;;;;;;;;;;5138948;28;20457;-58
2021/05/16 07:27:50;;;;;;;7.10;2.67;;;;;;;;;;5139360;28;20473;-51
2021/05/16 07:30:19;;;;;;;7.70;2.33;;;;;;;;;;5139390;27;20442;-54
2021/05/16 07:32:45;;;;;;;6.37;2.00;;;;;;;;;;5138443;28;20454;-60
2021/05/16 07:35:13;;;;;;;5.43;1.97;;;;;;;;;;5138708;28;20462;-55
2021/05/16 07:37:42;;;;;;;3.20;1.90;;;;;;;;;;5138696;27;20469;-56
2021/05/16 07:40:10;;;;;;;9.17;2.23;;;;;;;;;;5136676;28;20481;-56
2021/05/16 07:42:39;;;;;;;3.13;1.50;;;;;;;;;;5138701;28;20449;-56
2021/05/16 07:45:07;;;;;;;8.10;2.00;;;;;;;;;;5138390;28;20612;-59
2021/05/16 07:47:34;;;;;;;5.10;2.20;;;;;;;;;;5137575;28;20482;-56
2021/05/16 07:50:02;;;;;;;4.00;1.50;;;;;;;;;;5137344;28;20461;-53
2021/05/16 07:52:39;;;;;;;7.93;2.30;;;;;;;;;;5128703;28;20454;-53
2021/05/16 07:55:06;;;;;;;3.33;1.50;;;;;;;;;;5125571;28;20514;-58
2021/05/16 07:57:51;;;;;;;4.67;1.63;;;;;;;;;;5119201;28;20420;-49
2021/05/16 08:00:18;;;;;;;9.20;2.00;;;;;;;;;;5133472;28;20439;-56
2021/05/16 08:02:45;;;;;;;3.30;1.80;;;;;;;;;;5116987;28;20470;-59
2021/05/16 08:05:35;;;;;;;3.47;1.80;;;;;;;;;;5117869;28;20459;-59
2021/05/16 08:08:07;;;;;;;4.00;1.40;;;;;;;;;;5132280;28;20489;-58
2021/05/16 08:10:33;;;;;;;6.43;2.47;;;;;;;;;;5120299;28;20447;-57
2021/05/16 08:13:02;;;;;;;5.53;2.30;;;;;;;;;;5138077;28;20486;-52
2021/05/16 08:15:28;;;;;;;5.67;1.50;;;;;;;;;;5137398;28;20499;-52
2021/05/16 08:17:57;;;;;;;6.40;2.83;;;;;;;;;;5137450;28;20431;-51
2021/05/16 08:20:43;;;;;;;3.83;1.40;;;;;;;;;;5138066;28;20458;-51
2021/05/16 08:23:16;;;;;;;4.30;1.40;;;;;;;;;;5138272;28;20445;-52
2021/05/16 08:25:43;;;;;;;3.00;1.50;;;;;;;;;;5126980;28;20459;-56
2021/05/16 08:28:15;;;;;;;3.33;1.10;;;;;;;;;;5136414;27;20461;-58
2021/05/16 08:30:44;;;;;;;5.43;2.27;;;;;;;;;;5137753;28;20438;-51
2021/05/16 08:33:18;;;;;;;3.57;1.67;;;;;;;;;;5124735;28;20456;-53
2021/05/16 08:35:45;;;;;;;4.47;1.97;;;;;;;;;;5125618;28;20438;-56
2021/05/16 08:38:13;;;;;;;3.90;1.43;;;;;;;;;;5131087;28;20442;-59
2021/05/16 08:40:46;;;;;;;5.77;1.60;;;;;;;;;;5136439;28;20435;-57
2021/05/16 08:43:12;;;;;;;9.83;1.60;;;;;;;;;;5132621;28;20450;-56
2021/05/16 08:45:39;;;;;;;4.37;1.07;;;;;;;;;;5128780;28;20474;-54
2021/05/16 08:48:15;;;;;;;5.17;1.37;;;;;;;;;;5134164;28;20474;-59
2021/05/16 08:50:42;;;;;;;3.73;1.30;;;;;;;;;;5119454;28;20443;-55
2021/05/16 08:53:09;;;;;;;3.70;1.57;;;;;;;;;;5116530;28;20454;-57
2021/05/16 08:55:47;;;;;;;3.17;1.40;;;;;;;;;;5133585;27;20449;-58
2021/05/16 08:58:15;;;;;;;4.47;1.87;;;;;;;;;;5136927;28;20461;-57
2021/05/16 09:00:50;;;;;;;6.43;1.50;;;;;;;;;;5137258;28;20507;-52
2021/05/16 09:03:18;;;;;;;3.93;1.87;;;;;;;;;;5138234;27;20438;-58
2021/05/16 09:05:45;;;;;;;7.20;1.77;;;;;;;;;;5136887;28;20442;-53
2021/05/16 09:08:24;;;;;;;7.13;1.30;;;;;;;;;;5119030;28;20485;-58
2021/05/16 09:10:56;;;;;;;6.13;2.03;;;;;;;;;;5116519;28;20447;-56
2021/05/16 09:13:24;;;;;;;2.77;1.30;;;;;;;;;;5109202;28;20463;-53
2021/05/16 09:16:15;;;;;;;5.00;1.27;;;;;;;;;;5104822;28;20512;-54
2021/05/16 09:18:43;;;;;;;3.37;1.27;;;;;;;;;;5084855;27;20682;-55
2021/05/16 09:21:24;;;;;;;3.83;1.50;;;;;;;;;;5116185;28;20555;-54
2021/05/16 09:23:51;;;;;;;3.80;1.37;;;;;;;;;;5103775;28;20469;-60
2021/05/16 09:26:22;;;;;;;3.60;1.80;;;;;;;;;;5112868;28;20652;-56
2021/05/16 09:28:49;;;;;;;6.40;2.07;;;;;;;;;;5115886;28;20447;-54
2021/05/16 09:31:19;;;;;;;5.40;1.73;;;;;;;;;;5116491;28;20454;-54
2021/05/16 09:34:17;;;;;;;5.03;1.40;;;;;;;;;;5106807;28;20458;-55
2021/05/16 09:36:46;;;;;;;4.23;1.50;;;;;;;;;;5136798;27;20504;-53
2021/05/16 09:39:17;;;;;;;5.07;1.67;;;;;;;;;;5157657;27;20465;-58
2021/05/16 09:42:04;;;;;;;4.43;1.47;;;;;;;;;;5157766;27;20467;-53
2021/05/16 09:44:36;;;;;;;3.63;1.37;;;;;;;;;;5150269;27;20443;-59
2021/05/16 09:47:26;;;;;;;6.07;2.07;;;;;;;;;;5149117;27;20477;-52
2021/05/16 09:50:03;;;;;;;4.40;1.30;;;;;;;;;;5136524;28;20494;-53
2021/05/16 09:52:32;;;;;;;3.30;1.17;;;;;;;;;;5142969;27;20442;-56
2021/05/16 09:55:00;;;;;;;4.10;2.10;;;;;;;;;;5146095;27;20458;-53
2021/05/16 09:57:31;;;;;;;4.80;1.60;;;;;;;;;;5149332;27;20527;-55
2021/05/16 09:59:58;;;;;;;5.47;2.17;;;;;;;;;;5138366;27;20631;-54
2021/05/16 10:02:36;;;;;;;5.00;1.90;;;;;;;;;;5134623;28;20458;-49
2021/05/16 10:05:21;;;;;;;5.17;2.17;;;;;;;;;;5136238;28;20461;-51
2021/05/16 10:07:48;;;;;;;6.10;1.87;;;;;;;;;;5136123;28;20757;-54
2021/05/16 10:10:18;;;;;;;5.87;1.40;;;;;;;;;;5157031;27;20475;-55
2021/05/16 10:15:55;;;;;;;5.93;1.70;;;;;;;;;;5149794;27;20458;-56
2021/05/16 10:18:29;;;;;;;4.80;1.47;;;;;;;;;;5147461;28;20446;-58
2021/05/16 10:20:57;;;;;;;8.33;2.00;;;;;;;;;;5156392;28;20490;-62
2021/05/16 10:23:33;;;;;;;5.80;1.40;;;;;;;;;;5155601;28;20450;-59
2021/05/16 10:29:08;;;;;;;8.87;2.27;;;;;;;;;;5151660;28;20404;-57
2021/05/16 10:31:51;;;;;;;4.30;1.50;;;;;;;;;;5157264;28;20457;-57
2021/05/16 10:34:39;;;;;;;6.10;1.90;;;;;;;;;;5154250;28;20469;-58
2021/05/16 10:37:07;;;;;;;6.53;1.87;;;;;;;;;;5135939;28;20446;-60
2021/05/16 10:40:10;;;;;;;7.40;1.60;;;;;;;;;;5135566;28;20468;-58
2021/05/16 10:42:38;;;;;;;10.70;2.00;;;;;;;;;;5133897;28;20482;-54
2021/05/16 10:45:07;;;;;;;8.43;2.03;;;;;;;;;;5135755;28;20548;-57
2021/05/16 10:47:52;;;;;;;7.87;2.07;;;;;;;;;;5134964;28;20495;-56
2021/05/16 10:50:33;;;;;;;11.70;2.30;;;;;;;;;;5135944;28;20739;-52
2021/05/16 10:53:06;;;;;;;3.87;1.50;;;;;;;;;;5131894;28;20427;-61
2021/05/16 10:55:34;;;;;;;2.70;1.10;;;;;;;;;;5135058;28;20478;-58
2021/05/16 10:58:02;;;;;;;5.37;1.33;;;;;;;;;;5123360;28;20920;-54
2021/05/16 11:00:32;;;;;;;5.93;1.80;;;;;;;;;;5126000;28;20459;-58
2021/05/16 11:03:07;;;;;;;4.47;1.67;;;;;;;;;;5131060;28;20507;-54
2021/05/16 11:05:54;;;;;;;6.10;2.13;;;;;;;;;;5134825;28;20506;-62
2021/05/16 11:08:54;;;;;;;6.13;2.30;;;;;;;;;;5134246;28;20457;-58
2021/05/16 11:11:28;;;;;;;4.10;1.40;;;;;;;;;;5130212;28;20451;-60
2021/05/16 11:13:55;;;;;;;4.43;1.33;;;;;;;;;;5133390;28;20414;-63
2021/05/16 11:16:23;;;;;;;5.50;1.73;;;;;;;;;;5128164;28;20457;-55
2021/05/16 11:18:50;;;;;;;4.90;1.73;;;;;;;;;;5130135;28;20462;-55
2021/05/16 11:21:18;;;;;;;4.33;1.87;;;;;;;;;;5132094;28;20509;-56
2021/05/16 11:23:54;;;;;;;9.10;2.37;;;;;;;;;;5099426;28;20465;-61
2021/05/16 11:26:22;;;;;;;4.57;1.30;;;;;;;;;;5114656;28;20705;-61
2021/05/16 11:28:55;;;;;;;7.07;2.00;;;;;;;;;;5130981;28;20454;-59
2021/05/16 11:31:39;;;;;;;5.03;1.93;;;;;;;;;;5129897;28;20520;-60
2021/05/16 11:34:16;;;;;;;3.23;1.30;;;;;;;;;;5132096;28;20450;-58
2021/05/16 11:36:55;;;;;;;3.33;1.53;;;;;;;;;;5126204;28;20454;-59
2021/05/16 11:39:24;;;;;;;5.33;2.10;;;;;;;;;;5131557;28;20454;-57
2021/05/16 11:41:51;;;;;;;6.87;1.60;;;;;;;;;;5130891;28;20478;-60
2021/05/16 11:44:30;;;;;;;4.90;1.70;;;;;;;;;;5135138;28;20490;-58
2021/05/16 11:46:57;;;;;;;6.00;1.90;;;;;;;;;;5135359;28;20489;-51
2021/05/16 11:49:47;;;;;;;7.83;2.10;;;;;;;;;;5136377;28;20575;-56
2021/05/16 11:52:17;;;;;;;6.83;2.40;;;;;;;;;;5122936;28;20498;-53
2021/05/16 11:54:47;;;;;;;3.63;1.53;;;;;;;;;;5113687;28;20455;-53
2021/05/16 11:57:51;;;;;;;4.57;1.60;;;;;;;;;;5126885;28;20435;-57
2021/05/16 12:00:23;;;;;;;3.27;1.30;;;;;;;;;;5135839;28;20484;-56
2021/05/16 12:02:50;;;;;;;5.53;2.03;;;;;;;;;;5137433;28;20446;-50
2021/05/16 12:05:26;;;;;;;7.17;1.93;;;;;;;;;;5124260;28;20492;-60
2021/05/16 12:07:55;;;;;;;4.93;1.80;;;;;;;;;;5149367;27;20560;-61
2021/05/16 12:10:23;;;;;;;4.30;1.47;;;;;;;;;;5144378;27;20445;-54
2021/05/16 12:13:23;;;;;;;3.87;1.43;;;;;;;;;;5158279;27;20477;-59
2021/05/16 12:15:50;;;;;;;3.73;1.60;;;;;;;;;;5119699;27;20513;-60
2021/05/16 12:18:26;;;;;;;5.40;1.33;;;;;;;;;;5133272;28;20427;-59
2021/05/16 12:21:00;;;;;;;4.73;1.20;;;;;;;;;;5136594;28;20478;-58
2021/05/16 12:23:28;;;;;;;4.40;1.40;;;;;;;;;;5134079;28;20540;-60
2021/05/16 12:25:55;;;;;;;4.73;1.70;;;;;;;;;;5125292;28;20481;-59
2021/05/16 12:28:22;;;;;;;4.10;1.23;;;;;;;;;;5130850;28;20480;-63
2021/05/16 12:30:55;;;;;;;4.47;1.50;;;;;;;;;;5136405;28;20476;-57
2021/05/16 12:33:26;;;;;;;9.20;1.90;;;;;;;;;;5118720;28;20466;-55
2021/05/16 12:35:53;;;;;;;7.97;2.37;;;;;;;;;;5134991;28;20469;-62
2021/05/16 12:38:29;;;;;;;6.40;1.20;;;;;;;;;;5103595;28;20450;-62
2021/05/16 12:41:20;;;;;;;8.60;2.07;;;;;;;;;;5135502;28;20446;-58
2021/05/16 12:44:09;;;;;;;4.43;1.80;;;;;;;;;;5103841;28;20443;-57
2021/05/16 12:46:55;;;;;;;13.80;2.43;;;;;;;;;;5136233;28;20490;-56
2021/05/16 12:49:23;;;;;;;4.60;1.30;;;;;;;;;;5135841;28;20453;-57
2021/05/16 12:51:58;;;;;;;4.23;1.13;;;;;;;;;;5132635;28;20455;-57
2021/05/16 12:54:45;;;;;;;8.53;1.90;;;;;;;;;;5136495;28;20457;-56
2021/05/16 12:57:19;;;;;;;7.87;1.37;;;;;;;;;;5116698;27;20477;-57
2021/05/16 12:59:46;;;;;;;3.50;1.10;;;;;;;;;;5103817;28;20490;-56
2021/05/16 13:02:15;;;;;;;4.50;1.17;;;;;;;;;;5101533;28;20474;-53
2021/05/16 13:04:50;;;;;;;6.97;1.60;;;;;;;;;;5115306;28;20440;-56
2021/05/16 13:07:37;;;;;;;4.30;1.47;;;;;;;;;;5113882;28;20462;-60
2021/05/16 13:10:28;;;;;;;3.50;1.23;;;;;;;;;;5101332;28;20455;-58
2021/05/16 13:13:06;;;;;;;5.63;1.20;;;;;;;;;;5090813;28;20498;-55
2021/05/16 13:15:44;;;;;;;3.87;1.53;;;;;;;;;;5093671;28;20455;-55
2021/05/16 13:18:26;;;;;;;5.40;1.30;;;;;;;;;;5108729;28;20456;-58
2021/05/16 13:20:53;;;;;;;4.37;1.47;;;;;;;;;;5113129;28;20570;-58
2021/05/16 13:23:21;;;;;;;4.67;2.50;;;;;;;;;;5115549;28;20626;-58
2021/05/16 13:25:56;;;;;;;2.77;1.10;;;;;;;;;;5115440;28;20482;-59
2021/05/16 13:28:27;;;;;;;5.30;1.57;;;;;;;;;;5108039;28;20502;-59
2021/05/16 13:30:56;;;;;;;4.23;1.30;;;;;;;;;;5106848;28;20440;-59
2021/05/16 13:33:31;;;;;;;3.53;1.40;;;;;;;;;;5094917;28;20521;-57
2021/05/16 13:35:58;;;;;;;9.60;1.87;;;;;;;;;;5098478;28;20455;-61
2021/05/16 13:38:29;;;;;;;12.90;3.13;;;;;;;;;;5115444;28;20655;-62
2021/05/16 13:41:05;;;;;;;3.73;1.50;;;;;;;;;;5099713;28;20444;-58
2021/05/16 13:46:25;;;;;;;3.30;0.90;;;;;;;;;;5113499;28;20477;-59
2021/05/16 13:48:54;;;;;;;2.57;1.23;;;;;;;;;;5113960;28;20438;-56
2021/05/16 13:51:44;;;;;;;3.63;1.37;;;;;;;;;;5115995;28;20443;-61
2021/05/16 13:54:18;;;;;;;2.87;1.27;;;;;;;;;;5115862;28;20443;-54
2021/05/16 13:56:47;;;;;;;2.20;0.80;;;;;;;;;;5115159;28;20475;-59
2021/05/16 13:59:18;;;;;;;2.70;1.00;;;;;;;;;;5095119;28;20448;-61
2021/05/16 14:01:48;;;;;;;2.90;0.90;;;;;;;;;;5076543;28;20449;-55
2021/05/16 14:04:28;;;;;;;2.90;1.20;;;;;;;;;;5073706;28;20456;-60
2021/05/16 14:06:57;;;;;;;1.93;0.70;;;;;;;;;;5113902;28;20483;-61
2021/05/16 14:09:28;;;;;;;2.63;0.87;;;;;;;;;;5114943;28;20435;-60
2021/05/16 14:12:22;;;;;;;2.13;0.77;;;;;;;;;;5115153;28;20674;-58
2021/05/16 14:14:55;;;;;;;2.00;0.70;;;;;;;;;;5115037;28;20469;-52
2021/05/16 14:17:22;;;;;;;2.90;0.70;;;;;;;;;;5102199;28;20459;-59
2021/05/16 14:19:52;;;;;;;2.20;0.80;;;;;;;;;;5113950;28;20443;-61
2021/05/16 14:22:21;;;;;;;2.40;0.90;;;;;;;;;;5114102;28;20451;-64
2021/05/16 14:24:49;;;;;;;6.13;1.10;;;;;;;;;;5111325;28;20448;-59
2021/05/16 14:27:20;;;;;;;3.47;1.27;;;;;;;;;;5104864;28;20476;-58
2021/05/16 14:29:50;;;;;;;7.37;0.93;;;;;;;;;;5136404;28;20518;-58
2021/05/16 14:32:28;;;;;;;2.40;0.90;;;;;;;;;;5155659;28;20454;-56
2021/05/16 14:34:58;;;;;;;2.10;0.70;;;;;;;;;;5155211;28;20452;-60
2021/05/16 14:37:28;;;;;;;3.73;0.90;;;;;;;;;;5139836;28;20457;-58
2021/05/16 14:39:55;;;;;;;2.87;0.73;;;;;;;;;;5132414;28;20912;-59
2021/05/16 14:42:30;;;;;;;2.00;0.83;;;;;;;;;;5134390;28;20442;-61
2021/05/16 14:45:07;;;;;;;3.47;1.67;;;;;;;;;;5130173;28;20462;-59
2021/05/16 14:47:34;;;;;;;2.10;0.70;;;;;;;;;;5133302;28;20524;-61
2021/05/16 14:50:01;;;;;;;3.23;1.00;;;;;;;;;;5133830;28;20458;-62
2021/05/16 14:52:35;;;;;;;2.60;1.10;;;;;;;;;;5133266;28;20458;-61
2021/05/16 14:55:04;;;;;;;3.43;1.10;;;;;;;;;;5134054;28;20450;-63
2021/05/16 14:57:31;;;;;;;1.90;0.80;;;;;;;;;;5119005;28;20464;-60
2021/05/16 15:00:21;;;;;;;4.70;1.17;;;;;;;;;;5123332;28;20507;-61
2021/05/16 15:02:56;;;;;;;2.70;1.30;;;;;;;;;;5125143;28;20465;-62
2021/05/16 15:05:24;;;;;;;3.17;1.30;;;;;;;;;;5138347;28;20462;-59
2021/05/16 15:10:54;;;;;;;3.90;1.00;;;;;;;;;;5131466;28;20417;-58
2021/05/16 15:13:22;;;;;;;3.60;1.30;;;;;;;;;;5137837;28;20476;-64
2021/05/16 15:15:58;;;;;;;4.27;1.27;;;;;;;;;;5134968;28;20460;-63
2021/05/16 15:18:25;;;;;;;4.20;1.43;;;;;;;;;;5134354;28;20458;-58
2021/05/16 15:20:53;;;;;;;4.40;1.63;;;;;;;;;;5137258;28;20539;-63